sensor_id;sensor_type;location;lat;lon;timestamp;temperature;humidity
72126;SHT31;59999;51.676;22.650;2023-04-06T00:02:12;0.34;71.25
72126;SHT31;59999;51.676;22.650;2023-04-06T00:04:38;0.38;71.24
72126;SHT31;59999;51.676;22.650;2023-04-06T00:07:04;0.40;71.50
72126;SHT31;59999;51.676;22.650;2023-04-06T00:09:30;0.40;71.25
72126;SHT31;59999;51.676;22.650;2023-04-06T00:11:56;0.44;71.48
72126;SHT31;59999;51.676;22.650;2023-04-06T00:14:23;0.45;71.56
72126;SHT31;59999;51.676;22.650;2023-04-06T00:16:49;0.45;71.29
72126;SHT31;59999;51.676;22.650;2023-04-06T00:19:15;0.46;71.15
72126;SHT31;59999;51.676;22.650;2023-04-06T00:21:41;0.49;71.09
72126;SHT31;59999;51.676;22.650;2023-04-06T00:24:07;0.51;71.18
72126;SHT31;59999;51.676;22.650;2023-04-06T00:26:33;0.51;71.01
72126;SHT31;59999;51.676;22.650;2023-04-06T00:28:59;0.53;71.01
72126;SHT31;59999;51.676;22.650;2023-04-06T00:31:25;0.55;71.06
72126;SHT31;59999;51.676;22.650;2023-04-06T00:33:51;0.55;70.94
72126;SHT31;59999;51.676;22.650;2023-04-06T00:36:17;0.56;71.00
72126;SHT31;59999;51.676;22.650;2023-04-06T00:38:43;0.58;70.89
72126;SHT31;59999;51.676;22.650;2023-04-06T00:41:09;0.59;70.93
72126;SHT31;59999;51.676;22.650;2023-04-06T00:43:35;0.59;70.79
72126;SHT31;59999;51.676;22.650;2023-04-06T00:46:00;0.62;70.68
72126;SHT31;59999;51.676;22.650;2023-04-06T00:48:26;0.61;70.36
72126;SHT31;59999;51.676;22.650;2023-04-06T00:50:52;0.65;70.35
72126;SHT31;59999;51.676;22.650;2023-04-06T00:53:18;0.66;70.15
72126;SHT31;59999;51.676;22.650;2023-04-06T00:55:44;0.69;70.30
72126;SHT31;59999;51.676;22.650;2023-04-06T00:58:10;0.68;70.47
72126;SHT31;59999;51.676;22.650;2023-04-06T01:00:37;0.68;70.55
72126;SHT31;59999;51.676;22.650;2023-04-06T01:03:03;0.70;70.52
72126;SHT31;59999;51.676;22.650;2023-04-06T01:05:34;0.72;70.40
72126;SHT31;59999;51.676;22.650;2023-04-06T01:08:00;0.70;70.26
72126;SHT31;59999;51.676;22.650;2023-04-06T01:10:28;0.66;70.34
72126;SHT31;59999;51.676;22.650;2023-04-06T01:12:54;0.69;70.80
72126;SHT31;59999;51.676;22.650;2023-04-06T01:15:20;0.66;70.58
72126;SHT31;59999;51.676;22.650;2023-04-06T01:17:46;0.69;70.69
72126;SHT31;59999;51.676;22.650;2023-04-06T01:20:12;0.69;70.75
72126;SHT31;59999;51.676;22.650;2023-04-06T01:22:39;0.70;70.00
72126;SHT31;59999;51.676;22.650;2023-04-06T01:25:06;0.69;70.39
72126;SHT31;59999;51.676;22.650;2023-04-06T01:27:32;0.72;70.58
72126;SHT31;59999;51.676;22.650;2023-04-06T01:29:58;0.70;70.56
72126;SHT31;59999;51.676;22.650;2023-04-06T01:32:25;0.70;70.49
72126;SHT31;59999;51.676;22.650;2023-04-06T01:34:50;0.70;70.27
72126;SHT31;59999;51.676;22.650;2023-04-06T01:37:17;0.70;70.50
72126;SHT31;59999;51.676;22.650;2023-04-06T01:39:43;0.70;70.28
72126;SHT31;59999;51.676;22.650;2023-04-06T01:42:10;0.72;70.21
72126;SHT31;59999;51.676;22.650;2023-04-06T01:44:36;0.70;70.25
72126;SHT31;59999;51.676;22.650;2023-04-06T01:47:03;0.75;70.29
72126;SHT31;59999;51.676;22.650;2023-04-06T01:49:28;0.75;70.49
72126;SHT31;59999;51.676;22.650;2023-04-06T01:51:54;0.75;70.64
72126;SHT31;59999;51.676;22.650;2023-04-06T01:54:21;0.76;70.66
72126;SHT31;59999;51.676;22.650;2023-04-06T01:56:47;0.72;70.86
72126;SHT31;59999;51.676;22.650;2023-04-06T01:59:14;0.72;70.68
72126;SHT31;59999;51.676;22.650;2023-04-06T02:01:40;0.70;70.61
72126;SHT31;59999;51.676;22.650;2023-04-06T02:04:06;0.72;70.69
72126;SHT31;59999;51.676;22.650;2023-04-06T02:06:32;0.75;70.84
72126;SHT31;59999;51.676;22.650;2023-04-06T02:08:58;0.72;70.78
72126;SHT31;59999;51.676;22.650;2023-04-06T02:11:24;0.73;70.53
72126;SHT31;59999;51.676;22.650;2023-04-06T02:13:49;0.73;70.61
72126;SHT31;59999;51.676;22.650;2023-04-06T02:16:15;0.70;70.79
72126;SHT31;59999;51.676;22.650;2023-04-06T02:18:41;0.66;70.70
72126;SHT31;59999;51.676;22.650;2023-04-06T02:21:07;0.69;71.11
72126;SHT31;59999;51.676;22.650;2023-04-06T02:23:33;0.69;70.92
72126;SHT31;59999;51.676;22.650;2023-04-06T02:25:59;0.65;71.18
72126;SHT31;59999;51.676;22.650;2023-04-06T02:28:25;0.65;70.60
72126;SHT31;59999;51.676;22.650;2023-04-06T02:30:51;0.66;70.54
72126;SHT31;59999;51.676;22.650;2023-04-06T02:33:17;0.63;70.69
72126;SHT31;59999;51.676;22.650;2023-04-06T02:35:44;0.65;71.15
72126;SHT31;59999;51.676;22.650;2023-04-06T02:38:10;0.66;71.14
72126;SHT31;59999;51.676;22.650;2023-04-06T02:40:36;0.65;70.91
72126;SHT31;59999;51.676;22.650;2023-04-06T02:43:01;0.65;71.08
72126;SHT31;59999;51.676;22.650;2023-04-06T02:45:28;0.66;70.93
72126;SHT31;59999;51.676;22.650;2023-04-06T02:47:53;0.66;70.77
72126;SHT31;59999;51.676;22.650;2023-04-06T02:50:19;0.68;71.00
72126;SHT31;59999;51.676;22.650;2023-04-06T02:52:45;0.70;70.87
72126;SHT31;59999;51.676;22.650;2023-04-06T02:55:11;0.72;71.05
72126;SHT31;59999;51.676;22.650;2023-04-06T02:57:37;0.70;71.25
72126;SHT31;59999;51.676;22.650;2023-04-06T03:00:04;0.73;71.06
72126;SHT31;59999;51.676;22.650;2023-04-06T03:02:30;0.73;71.16
72126;SHT31;59999;51.676;22.650;2023-04-06T03:04:56;0.70;71.37
72126;SHT31;59999;51.676;22.650;2023-04-06T03:07:22;0.76;71.35
72126;SHT31;59999;51.676;22.650;2023-04-06T03:09:48;0.77;71.21
72126;SHT31;59999;51.676;22.650;2023-04-06T03:12:14;0.79;71.42
72126;SHT31;59999;51.676;22.650;2023-04-06T03:14:40;0.80;70.94
72126;SHT31;59999;51.676;22.650;2023-04-06T03:17:06;0.80;71.12
72126;SHT31;59999;51.676;22.650;2023-04-06T03:19:32;0.80;71.38
72126;SHT31;59999;51.676;22.650;2023-04-06T03:21:57;0.76;71.40
72126;SHT31;59999;51.676;22.650;2023-04-06T03:24:23;0.75;71.29
72126;SHT31;59999;51.676;22.650;2023-04-06T03:26:49;0.73;71.97
72126;SHT31;59999;51.676;22.650;2023-04-06T03:29:15;0.72;72.22
72126;SHT31;59999;51.676;22.650;2023-04-06T03:31:41;0.73;72.30
72126;SHT31;59999;51.676;22.650;2023-04-06T03:34:07;0.69;72.41
72126;SHT31;59999;51.676;22.650;2023-04-06T03:36:34;0.69;72.66
72126;SHT31;59999;51.676;22.650;2023-04-06T03:39:00;0.65;72.89
72126;SHT31;59999;51.676;22.650;2023-04-06T03:41:26;0.61;73.14
72126;SHT31;59999;51.676;22.650;2023-04-06T03:43:52;0.59;73.41
72126;SHT31;59999;51.676;22.650;2023-04-06T03:46:18;0.58;73.62
72126;SHT31;59999;51.676;22.650;2023-04-06T03:48:45;0.56;74.01
72126;SHT31;59999;51.676;22.650;2023-04-06T03:51:11;0.52;74.14
72126;SHT31;59999;51.676;22.650;2023-04-06T03:53:37;0.48;74.31
72126;SHT31;59999;51.676;22.650;2023-04-06T03:56:03;0.44;74.53
72126;SHT31;59999;51.676;22.650;2023-04-06T03:58:29;0.41;74.64
72126;SHT31;59999;51.676;22.650;2023-04-06T04:00:55;0.40;74.96
72126;SHT31;59999;51.676;22.650;2023-04-06T04:03:21;0.40;75.21
72126;SHT31;59999;51.676;22.650;2023-04-06T04:05:49;0.40;75.13
72126;SHT31;59999;51.676;22.650;2023-04-06T04:08:16;0.42;74.99
72126;SHT31;59999;51.676;22.650;2023-04-06T04:10:42;0.40;75.15
72126;SHT31;59999;51.676;22.650;2023-04-06T04:13:08;0.35;75.20
72126;SHT31;59999;51.676;22.650;2023-04-06T04:15:33;0.35;75.40
72126;SHT31;59999;51.676;22.650;2023-04-06T04:17:59;0.32;75.59
72126;SHT31;59999;51.676;22.650;2023-04-06T04:20:25;0.34;75.70
72126;SHT31;59999;51.676;22.650;2023-04-06T04:22:51;0.34;75.85
72126;SHT31;59999;51.676;22.650;2023-04-06T04:25:17;0.34;76.13
72126;SHT31;59999;51.676;22.650;2023-04-06T04:27:43;0.29;76.42
72126;SHT31;59999;51.676;22.650;2023-04-06T04:30:09;0.26;76.62
72126;SHT31;59999;51.676;22.650;2023-04-06T04:32:36;0.29;76.47
72126;SHT31;59999;51.676;22.650;2023-04-06T04:35:02;0.29;76.33
72126;SHT31;59999;51.676;22.650;2023-04-06T04:37:28;0.25;76.62
72126;SHT31;59999;51.676;22.650;2023-04-06T04:39:54;0.28;76.84
72126;SHT31;59999;51.676;22.650;2023-04-06T04:42:20;0.28;76.84
72126;SHT31;59999;51.676;22.650;2023-04-06T04:44:46;0.31;76.67
72126;SHT31;59999;51.676;22.650;2023-04-06T04:47:12;0.34;76.59
72126;SHT31;59999;51.676;22.650;2023-04-06T04:49:37;0.34;76.67
72126;SHT31;59999;51.676;22.650;2023-04-06T04:52:03;0.31;76.80
72126;SHT31;59999;51.676;22.650;2023-04-06T04:54:29;0.37;76.57
72126;SHT31;59999;51.676;22.650;2023-04-06T04:56:55;0.37;76.59
72126;SHT31;59999;51.676;22.650;2023-04-06T04:59:21;0.41;76.57
72126;SHT31;59999;51.676;22.650;2023-04-06T05:01:47;0.41;76.53
72126;SHT31;59999;51.676;22.650;2023-04-06T05:04:13;0.45;76.68
72126;SHT31;59999;51.676;22.650;2023-04-06T05:06:39;0.44;76.54
72126;SHT31;59999;51.676;22.650;2023-04-06T05:09:05;0.45;76.77
72126;SHT31;59999;51.676;22.650;2023-04-06T05:11:31;0.44;76.50
72126;SHT31;59999;51.676;22.650;2023-04-06T05:13:57;0.45;76.53
72126;SHT31;59999;51.676;22.650;2023-04-06T05:16:23;0.48;76.69
72126;SHT31;59999;51.676;22.650;2023-04-06T05:18:49;0.48;76.43
72126;SHT31;59999;51.676;22.650;2023-04-06T05:21:15;0.51;76.69
72126;SHT31;59999;51.676;22.650;2023-04-06T05:23:41;0.53;76.40
72126;SHT31;59999;51.676;22.650;2023-04-06T05:26:07;0.55;76.24
72126;SHT31;59999;51.676;22.650;2023-04-06T05:28:33;0.56;76.33
72126;SHT31;59999;51.676;22.650;2023-04-06T05:30:59;0.59;76.35
72126;SHT31;59999;51.676;22.650;2023-04-06T05:33:25;0.56;76.63
72126;SHT31;59999;51.676;22.650;2023-04-06T05:35:52;0.62;76.49
72126;SHT31;59999;51.676;22.650;2023-04-06T05:38:17;0.62;76.69
72126;SHT31;59999;51.676;22.650;2023-04-06T05:40:43;0.65;76.47
72126;SHT31;59999;51.676;22.650;2023-04-06T05:43:09;0.65;76.59
72126;SHT31;59999;51.676;22.650;2023-04-06T05:45:35;0.62;76.65
72126;SHT31;59999;51.676;22.650;2023-04-06T05:48:02;0.65;76.97
72126;SHT31;59999;51.676;22.650;2023-04-06T05:50:28;0.66;76.72
72126;SHT31;59999;51.676;22.650;2023-04-06T05:52:54;0.62;77.04
72126;SHT31;59999;51.676;22.650;2023-04-06T05:55:20;0.61;77.22
72126;SHT31;59999;51.676;22.650;2023-04-06T05:57:46;0.59;77.47
72126;SHT31;59999;51.676;22.650;2023-04-06T06:00:13;0.61;77.76
72126;SHT31;59999;51.676;22.650;2023-04-06T06:02:38;0.58;78.15
72126;SHT31;59999;51.676;22.650;2023-04-06T06:05:05;0.55;78.01
72126;SHT31;59999;51.676;22.650;2023-04-06T06:07:31;0.55;77.96
72126;SHT31;59999;51.676;22.650;2023-04-06T06:09:57;0.58;78.46
72126;SHT31;59999;51.676;22.650;2023-04-06T06:12:23;0.56;78.40
72126;SHT31;59999;51.676;22.650;2023-04-06T06:14:49;0.58;78.48
72126;SHT31;59999;51.676;22.650;2023-04-06T06:17:15;0.55;78.82
72126;SHT31;59999;51.676;22.650;2023-04-06T06:19:41;0.56;79.18
72126;SHT31;59999;51.676;22.650;2023-04-06T06:22:07;0.62;79.27
72126;SHT31;59999;51.676;22.650;2023-04-06T06:24:33;0.65;79.33
72126;SHT31;59999;51.676;22.650;2023-04-06T06:26:59;0.69;78.99
72126;SHT31;59999;51.676;22.650;2023-04-06T06:29:25;0.68;79.12
72126;SHT31;59999;51.676;22.650;2023-04-06T06:31:51;0.70;79.53
72126;SHT31;59999;51.676;22.650;2023-04-06T06:34:17;0.66;79.61
72126;SHT31;59999;51.676;22.650;2023-04-06T06:36:43;0.69;79.93
72126;SHT31;59999;51.676;22.650;2023-04-06T06:39:09;0.68;80.54
72126;SHT31;59999;51.676;22.650;2023-04-06T06:41:35;0.63;80.45
72126;SHT31;59999;51.676;22.650;2023-04-06T06:44:01;0.59;80.93
72126;SHT31;59999;51.676;22.650;2023-04-06T06:46:27;0.53;81.62
72126;SHT31;59999;51.676;22.650;2023-04-06T06:48:53;0.52;82.19
72126;SHT31;59999;51.676;22.650;2023-04-06T06:51:19;0.51;82.69
72126;SHT31;59999;51.676;22.650;2023-04-06T06:53:45;0.46;83.26
72126;SHT31;59999;51.676;22.650;2023-04-06T06:56:11;0.49;83.10
72126;SHT31;59999;51.676;22.650;2023-04-06T06:58:38;0.45;83.09
72126;SHT31;59999;51.676;22.650;2023-04-06T07:01:04;0.45;83.23
72126;SHT31;59999;51.676;22.650;2023-04-06T07:03:30;0.44;83.57
72126;SHT31;59999;51.676;22.650;2023-04-06T07:05:56;0.41;83.75
72126;SHT31;59999;51.676;22.650;2023-04-06T07:08:23;0.42;83.93
72126;SHT31;59999;51.676;22.650;2023-04-06T07:10:51;0.41;84.12
72126;SHT31;59999;51.676;22.650;2023-04-06T07:13:23;0.38;84.33
72126;SHT31;59999;51.676;22.650;2023-04-06T07:15:50;0.37;84.66
72126;SHT31;59999;51.676;22.650;2023-04-06T07:18:17;0.38;84.58
72126;SHT31;59999;51.676;22.650;2023-04-06T07:20:43;0.40;84.65
72126;SHT31;59999;51.676;22.650;2023-04-06T07:23:09;0.42;84.33
72126;SHT31;59999;51.676;22.650;2023-04-06T07:25:35;0.45;84.75
72126;SHT31;59999;51.676;22.650;2023-04-06T07:28:02;0.49;84.96
72126;SHT31;59999;51.676;22.650;2023-04-06T07:30:29;0.51;84.93
72126;SHT31;59999;51.676;22.650;2023-04-06T07:32:55;0.46;84.48
72126;SHT31;59999;51.676;22.650;2023-04-06T07:35:25;0.53;84.60
72126;SHT31;59999;51.676;22.650;2023-04-06T07:37:52;0.53;84.59
72126;SHT31;59999;51.676;22.650;2023-04-06T07:40:19;0.52;84.52
72126;SHT31;59999;51.676;22.650;2023-04-06T07:42:45;0.55;84.76
72126;SHT31;59999;51.676;22.650;2023-04-06T07:45:12;0.55;84.85
72126;SHT31;59999;51.676;22.650;2023-04-06T07:47:37;0.53;84.75
72126;SHT31;59999;51.676;22.650;2023-04-06T07:50:04;0.59;84.36
72126;SHT31;59999;51.676;22.650;2023-04-06T07:52:30;0.61;84.41
72126;SHT31;59999;51.676;22.650;2023-04-06T07:54:58;0.62;84.30
72126;SHT31;59999;51.676;22.650;2023-04-06T07:57:24;0.66;84.45
72126;SHT31;59999;51.676;22.650;2023-04-06T07:59:51;0.68;84.26
72126;SHT31;59999;51.676;22.650;2023-04-06T08:02:17;0.70;84.09
72126;SHT31;59999;51.676;22.650;2023-04-06T08:04:43;0.76;83.98
72126;SHT31;59999;51.676;22.650;2023-04-06T08:07:09;0.82;84.17
72126;SHT31;59999;51.676;22.650;2023-04-06T08:09:35;0.86;83.52
72126;SHT31;59999;51.676;22.650;2023-04-06T08:12:01;0.86;83.84
72126;SHT31;59999;51.676;22.650;2023-04-06T08:14:27;0.87;83.73
72126;SHT31;59999;51.676;22.650;2023-04-06T08:16:53;0.91;83.54
72126;SHT31;59999;51.676;22.650;2023-04-06T08:19:19;0.96;83.05
72126;SHT31;59999;51.676;22.650;2023-04-06T08:21:45;0.94;83.25
72126;SHT31;59999;51.676;22.650;2023-04-06T08:24:13;0.94;83.16
72126;SHT31;59999;51.676;22.650;2023-04-06T08:26:39;0.97;83.02
72126;SHT31;59999;51.676;22.650;2023-04-06T08:29:05;1.03;83.01
72126;SHT31;59999;51.676;22.650;2023-04-06T08:31:34;1.08;83.14
72126;SHT31;59999;51.676;22.650;2023-04-06T08:34:01;1.11;82.96
72126;SHT31;59999;51.676;22.650;2023-04-06T08:36:27;1.17;82.52
72126;SHT31;59999;51.676;22.650;2023-04-06T08:38:53;1.14;82.48
72126;SHT31;59999;51.676;22.650;2023-04-06T08:41:19;1.17;82.67
72126;SHT31;59999;51.676;22.650;2023-04-06T08:43:56;1.20;82.70
72126;SHT31;59999;51.676;22.650;2023-04-06T08:46:23;1.21;82.76
72126;SHT31;59999;51.676;22.650;2023-04-06T08:48:56;1.26;82.58
72126;SHT31;59999;51.676;22.650;2023-04-06T08:51:26;1.20;82.67
72126;SHT31;59999;51.676;22.650;2023-04-06T08:53:54;1.21;83.06
72126;SHT31;59999;51.676;22.650;2023-04-06T08:56:23;1.28;83.34
72126;SHT31;59999;51.676;22.650;2023-04-06T08:58:52;1.30;82.99
72126;SHT31;59999;51.676;22.650;2023-04-06T09:01:21;1.37;83.12
72126;SHT31;59999;51.676;22.650;2023-04-06T09:03:49;1.42;82.72
72126;SHT31;59999;51.676;22.650;2023-04-06T09:06:15;1.40;82.85
72126;SHT31;59999;51.676;22.650;2023-04-06T09:08:41;1.41;83.07
72126;SHT31;59999;51.676;22.650;2023-04-06T09:11:08;1.49;83.05
72126;SHT31;59999;51.676;22.650;2023-04-06T09:13:55;1.48;83.10
72126;SHT31;59999;51.676;22.650;2023-04-06T09:16:22;1.45;82.95
72126;SHT31;59999;51.676;22.650;2023-04-06T09:18:49;1.42;83.25
72126;SHT31;59999;51.676;22.650;2023-04-06T09:21:19;1.45;83.64
72126;SHT31;59999;51.676;22.650;2023-04-06T09:23:45;1.51;83.30
72126;SHT31;59999;51.676;22.650;2023-04-06T09:26:16;1.51;83.68
72126;SHT31;59999;51.676;22.650;2023-04-06T09:28:43;1.49;83.77
72126;SHT31;59999;51.676;22.650;2023-04-06T09:31:10;1.48;83.38
72126;SHT31;59999;51.676;22.650;2023-04-06T09:33:45;1.51;83.59
72126;SHT31;59999;51.676;22.650;2023-04-06T09:36:12;1.55;83.83
72126;SHT31;59999;51.676;22.650;2023-04-06T09:39:00;1.61;83.75
72126;SHT31;59999;51.676;22.650;2023-04-06T09:41:28;1.66;83.67
72126;SHT31;59999;51.676;22.650;2023-04-06T09:44:05;1.62;83.70
72126;SHT31;59999;51.676;22.650;2023-04-06T09:46:36;1.58;83.86
72126;SHT31;59999;51.676;22.650;2023-04-06T09:49:04;1.52;83.88
72126;SHT31;59999;51.676;22.650;2023-04-06T09:51:38;1.48;84.22
72126;SHT31;59999;51.676;22.650;2023-04-06T09:54:06;1.49;84.72
72126;SHT31;59999;51.676;22.650;2023-04-06T09:59:26;1.44;85.05
72126;SHT31;59999;51.676;22.650;2023-04-06T10:01:55;1.37;85.57
72126;SHT31;59999;51.676;22.650;2023-04-06T10:04:43;1.34;86.16
72126;SHT31;59999;51.676;22.650;2023-04-06T10:07:10;1.37;86.43
72126;SHT31;59999;51.676;22.650;2023-04-06T10:09:43;1.34;86.97
72126;SHT31;59999;51.676;22.650;2023-04-06T10:12:11;1.37;87.14
72126;SHT31;59999;51.676;22.650;2023-04-06T10:14:39;1.38;87.55
72126;SHT31;59999;51.676;22.650;2023-04-06T10:17:06;1.37;87.47
72126;SHT31;59999;51.676;22.650;2023-04-06T10:22:36;1.37;87.66
72126;SHT31;59999;51.676;22.650;2023-04-06T10:25:04;1.35;87.75
72126;SHT31;59999;51.676;22.650;2023-04-06T10:27:32;1.35;87.72
72126;SHT31;59999;51.676;22.650;2023-04-06T10:30:03;1.37;87.90
72126;SHT31;59999;51.676;22.650;2023-04-06T10:32:37;1.41;88.05
72126;SHT31;59999;51.676;22.650;2023-04-06T10:35:11;1.41;88.18
72126;SHT31;59999;51.676;22.650;2023-04-06T10:37:50;1.47;88.34
72126;SHT31;59999;51.676;22.650;2023-04-06T10:40:40;1.45;88.19
72126;SHT31;59999;51.676;22.650;2023-04-06T10:43:20;1.45;88.27
72126;SHT31;59999;51.676;22.650;2023-04-06T10:45:57;1.44;88.26
72126;SHT31;59999;51.676;22.650;2023-04-06T10:48:25;1.42;88.35
72126;SHT31;59999;51.676;22.650;2023-04-06T10:51:01;1.44;88.49
72126;SHT31;59999;51.676;22.650;2023-04-06T10:53:33;1.45;88.67
72126;SHT31;59999;51.676;22.650;2023-04-06T10:56:00;1.49;88.78
72126;SHT31;59999;51.676;22.650;2023-04-06T10:58:27;1.51;88.58
72126;SHT31;59999;51.676;22.650;2023-04-06T11:00:54;1.51;88.76
72126;SHT31;59999;51.676;22.650;2023-04-06T11:03:21;1.55;88.73
72126;SHT31;59999;51.676;22.650;2023-04-06T11:05:49;1.56;88.92
72126;SHT31;59999;51.676;22.650;2023-04-06T11:08:35;1.59;88.78
72126;SHT31;59999;51.676;22.650;2023-04-06T11:11:04;1.61;88.96
72126;SHT31;59999;51.676;22.650;2023-04-06T11:13:57;1.61;88.89
72126;SHT31;59999;51.676;22.650;2023-04-06T11:16:24;1.61;89.24
72126;SHT31;59999;51.676;22.650;2023-04-06T11:21:18;1.65;89.43
72126;SHT31;59999;51.676;22.650;2023-04-06T11:23:44;1.63;89.43
72126;SHT31;59999;51.676;22.650;2023-04-06T11:26:13;1.66;89.20
72126;SHT31;59999;51.676;22.650;2023-04-06T11:28:43;1.68;89.39
72126;SHT31;59999;51.676;22.650;2023-04-06T11:31:10;1.69;89.65
72126;SHT31;59999;51.676;22.650;2023-04-06T11:33:37;1.68;89.67
72126;SHT31;59999;51.676;22.650;2023-04-06T11:36:05;1.69;89.71
72126;SHT31;59999;51.676;22.650;2023-04-06T11:38:31;1.73;89.93
72126;SHT31;59999;51.676;22.650;2023-04-06T11:40:57;1.79;89.91
72126;SHT31;59999;51.676;22.650;2023-04-06T11:43:30;1.75;89.84
72126;SHT31;59999;51.676;22.650;2023-04-06T11:46:01;1.78;89.92
72126;SHT31;59999;51.676;22.650;2023-04-06T11:48:30;1.76;90.01
72126;SHT31;59999;51.676;22.650;2023-04-06T11:51:00;1.75;90.12
72126;SHT31;59999;51.676;22.650;2023-04-06T11:53:28;1.75;90.15
72126;SHT31;59999;51.676;22.650;2023-04-06T11:55:55;1.78;90.15
72126;SHT31;59999;51.676;22.650;2023-04-06T11:58:21;1.76;90.33
72126;SHT31;59999;51.676;22.650;2023-04-06T12:00:47;1.78;90.45
72126;SHT31;59999;51.676;22.650;2023-04-06T12:03:14;1.80;90.87
72126;SHT31;59999;51.676;22.650;2023-04-06T12:05:40;1.86;91.08
72126;SHT31;59999;51.676;22.650;2023-04-06T12:08:06;1.87;91.09
72126;SHT31;59999;51.676;22.650;2023-04-06T12:10:32;1.90;91.13
72126;SHT31;59999;51.676;22.650;2023-04-06T12:12:57;1.95;91.26
72126;SHT31;59999;51.676;22.650;2023-04-06T12:15:24;1.96;91.30
72126;SHT31;59999;51.676;22.650;2023-04-06T12:17:49;1.97;91.19
72126;SHT31;59999;51.676;22.650;2023-04-06T12:20:16;2.00;91.25
72126;SHT31;59999;51.676;22.650;2023-04-06T12:22:42;2.06;91.27
72126;SHT31;59999;51.676;22.650;2023-04-06T12:25:08;2.07;91.32
72126;SHT31;59999;51.676;22.650;2023-04-06T12:27:34;2.14;91.51
72126;SHT31;59999;51.676;22.650;2023-04-06T12:30:00;2.20;91.63
72126;SHT31;59999;51.676;22.650;2023-04-06T12:32:26;2.24;91.55
72126;SHT31;59999;51.676;22.650;2023-04-06T12:34:52;2.24;91.15
72126;SHT31;59999;51.676;22.650;2023-04-06T12:37:18;2.23;90.95
72126;SHT31;59999;51.676;22.650;2023-04-06T12:39:44;2.24;90.89
72126;SHT31;59999;51.676;22.650;2023-04-06T12:42:11;2.26;91.23
72126;SHT31;59999;51.676;22.650;2023-04-06T12:44:38;2.21;91.17
72126;SHT31;59999;51.676;22.650;2023-04-06T12:47:04;2.20;91.35
72126;SHT31;59999;51.676;22.650;2023-04-06T12:49:30;2.26;91.47
72126;SHT31;59999;51.676;22.650;2023-04-06T12:51:57;2.27;91.48
72126;SHT31;59999;51.676;22.650;2023-04-06T12:54:23;2.27;91.40
72126;SHT31;59999;51.676;22.650;2023-04-06T12:56:49;2.31;91.60
72126;SHT31;59999;51.676;22.650;2023-04-06T12:59:15;2.34;91.62
72126;SHT31;59999;51.676;22.650;2023-04-06T13:01:41;2.34;91.54
72126;SHT31;59999;51.676;22.650;2023-04-06T13:04:08;2.36;91.44
72126;SHT31;59999;51.676;22.650;2023-04-06T13:06:33;2.40;91.69
72126;SHT31;59999;51.676;22.650;2023-04-06T13:08:59;2.47;91.72
72126;SHT31;59999;51.676;22.650;2023-04-06T13:11:26;2.51;91.62
72126;SHT31;59999;51.676;22.650;2023-04-06T13:13:52;2.51;91.58
72126;SHT31;59999;51.676;22.650;2023-04-06T13:16:17;2.54;91.61
72126;SHT31;59999;51.676;22.650;2023-04-06T13:18:44;2.52;91.62
72126;SHT31;59999;51.676;22.650;2023-04-06T13:21:13;2.47;91.50
72126;SHT31;59999;51.676;22.650;2023-04-06T13:23:40;2.47;91.27
72126;SHT31;59999;51.676;22.650;2023-04-06T13:26:06;2.42;91.45
72126;SHT31;59999;51.676;22.650;2023-04-06T13:28:35;2.41;91.55
72126;SHT31;59999;51.676;22.650;2023-04-06T13:31:02;2.44;91.69
72126;SHT31;59999;51.676;22.650;2023-04-06T13:33:29;2.45;91.73
72126;SHT31;59999;51.676;22.650;2023-04-06T13:35:56;2.41;91.88
72126;SHT31;59999;51.676;22.650;2023-04-06T13:38:22;2.41;91.92
72126;SHT31;59999;51.676;22.650;2023-04-06T13:40:49;2.48;92.02
72126;SHT31;59999;51.676;22.650;2023-04-06T13:43:16;2.47;91.86
72126;SHT31;59999;51.676;22.650;2023-04-06T13:45:51;2.45;91.83
72126;SHT31;59999;51.676;22.650;2023-04-06T13:48:18;2.42;91.92
72126;SHT31;59999;51.676;22.650;2023-04-06T13:50:44;2.42;92.00
72126;SHT31;59999;51.676;22.650;2023-04-06T13:53:11;2.40;92.17
72126;SHT31;59999;51.676;22.650;2023-04-06T13:55:37;2.42;92.32
72126;SHT31;59999;51.676;22.650;2023-04-06T13:58:03;2.47;92.42
72126;SHT31;59999;51.676;22.650;2023-04-06T14:00:29;2.47;92.44
72126;SHT31;59999;51.676;22.650;2023-04-06T14:02:55;2.47;92.49
72126;SHT31;59999;51.676;22.650;2023-04-06T14:05:21;2.51;92.55
72126;SHT31;59999;51.676;22.650;2023-04-06T14:07:50;2.49;92.50
72126;SHT31;59999;51.676;22.650;2023-04-06T14:10:16;2.51;92.55
72126;SHT31;59999;51.676;22.650;2023-04-06T14:12:43;2.54;92.63
72126;SHT31;59999;51.676;22.650;2023-04-06T14:15:11;2.55;92.57
72126;SHT31;59999;51.676;22.650;2023-04-06T14:17:38;2.57;92.56
72126;SHT31;59999;51.676;22.650;2023-04-06T14:20:05;2.59;92.56
72126;SHT31;59999;51.676;22.650;2023-04-06T14:22:32;2.61;92.59
72126;SHT31;59999;51.676;22.650;2023-04-06T14:24:58;2.62;92.58
72126;SHT31;59999;51.676;22.650;2023-04-06T14:27:24;2.64;92.61
72126;SHT31;59999;51.676;22.650;2023-04-06T14:29:50;2.64;92.69
72126;SHT31;59999;51.676;22.650;2023-04-06T14:32:16;2.68;92.82
72126;SHT31;59999;51.676;22.650;2023-04-06T14:34:43;2.68;92.81
72126;SHT31;59999;51.676;22.650;2023-04-06T14:37:09;2.68;92.82
72126;SHT31;59999;51.676;22.650;2023-04-06T14:39:35;2.71;92.83
72126;SHT31;59999;51.676;22.650;2023-04-06T14:42:01;2.75;92.87
72126;SHT31;59999;51.676;22.650;2023-04-06T14:44:27;2.76;92.90
72126;SHT31;59999;51.676;22.650;2023-04-06T14:46:53;2.78;92.88
72126;SHT31;59999;51.676;22.650;2023-04-06T14:49:19;2.82;92.88
72126;SHT31;59999;51.676;22.650;2023-04-06T14:51:46;2.81;92.78
72126;SHT31;59999;51.676;22.650;2023-04-06T14:54:12;2.86;92.81
72126;SHT31;59999;51.676;22.650;2023-04-06T14:56:38;2.85;92.80
72126;SHT31;59999;51.676;22.650;2023-04-06T14:59:04;2.89;92.85
72126;SHT31;59999;51.676;22.650;2023-04-06T15:01:34;2.86;92.89
72126;SHT31;59999;51.676;22.650;2023-04-06T15:04:02;2.91;92.96
72126;SHT31;59999;51.676;22.650;2023-04-06T15:06:29;2.91;92.98
72126;SHT31;59999;51.676;22.650;2023-04-06T15:08:56;2.92;93.00
72126;SHT31;59999;51.676;22.650;2023-04-06T15:11:22;2.96;93.05
72126;SHT31;59999;51.676;22.650;2023-04-06T15:13:47;2.96;93.10
72126;SHT31;59999;51.676;22.650;2023-04-06T15:16:14;3.00;93.09
72126;SHT31;59999;51.676;22.650;2023-04-06T15:18:40;3.02;93.11
72126;SHT31;59999;51.676;22.650;2023-04-06T15:21:06;3.03;93.08
72126;SHT31;59999;51.676;22.650;2023-04-06T15:23:33;3.05;93.09
72126;SHT31;59999;51.676;22.650;2023-04-06T15:26:00;3.05;93.07
72126;SHT31;59999;51.676;22.650;2023-04-06T15:28:27;3.07;93.00
72126;SHT31;59999;51.676;22.650;2023-04-06T15:30:54;3.07;93.03
72126;SHT31;59999;51.676;22.650;2023-04-06T15:33:21;3.09;93.05
72126;SHT31;59999;51.676;22.650;2023-04-06T15:35:50;3.09;93.07
72126;SHT31;59999;51.676;22.650;2023-04-06T15:38:16;3.10;93.09